Time;durP1;ratioP1;P1;durP2;ratioP2;P2;SDS_P1;SDS_P2;PMS_P1;PMS_P2;Temp;Humidity;BMP_temperature;BMP_pressure;BME280_temperature;BME280_humidity;BME280_pressure;Samples;Min_cycle;Max_cycle;Signal;HPM_P1;HPM_P2
2024/04/19 00:04:23;;;;;;;1.17;0.63;;;;;;;;;;10755553;27;20007;-73
2024/04/19 00:09:28;;;;;;;0.60;0.60;;;;;;;;;;10772580;27;20027;-73
2024/04/19 00:14:34;;;;;;;0.77;0.77;;;;;;;;;;10771050;27;20008;-73
2024/04/19 00:19:41;;;;;;;0.70;0.70;;;;;;;;;;10759214;27;20366;-73
2024/04/19 00:24:46;;;;;;;0.98;0.77;;;;;;;;;;10756571;27;20012;-74
2024/04/19 00:29:52;;;;;;;0.65;0.52;;;;;;;;;;10757976;27;20019;-73
2024/04/19 00:34:59;;;;;;;1.42;0.80;;;;;;;;;;10753903;27;20026;-73
2024/04/19 00:40:05;;;;;;;2.03;0.70;;;;;;;;;;10742193;27;20015;-73
2024/04/19 00:45:30;;;;;;;1.23;0.90;;;;;;;;;;10749994;27;20022;-73
2024/04/19 00:50:39;;;;;;;2.20;0.77;;;;;;;;;;10758312;27;20008;-74
2024/04/19 00:55:44;;;;;;;0.70;0.68;;;;;;;;;;10747126;27;20012;-73
2024/04/19 01:00:50;;;;;;;0.83;0.83;;;;;;;;;;10746782;27;20012;-73
2024/04/19 01:05:57;;;;;;;2.50;0.93;;;;;;;;;;10761206;27;20011;-73
2024/04/19 01:11:03;;;;;;;2.38;1.23;;;;;;;;;;10731225;27;20012;-73
2024/04/19 01:16:08;;;;;;;1.77;0.90;;;;;;;;;;10793780;21;20357;-75
2024/04/19 01:21:32;;;;;;;1.15;1.00;;;;;;;;;;10820262;27;20034;-75
2024/04/19 01:26:39;;;;;;;0.90;0.90;;;;;;;;;;10820388;27;20007;-75
2024/04/19 01:31:44;;;;;;;2.05;0.95;;;;;;;;;;10796418;27;20011;-75
2024/04/19 01:36:49;;;;;;;1.95;1.05;;;;;;;;;;10819978;27;20394;-75
2024/04/19 01:41:59;;;;;;;1.15;0.80;;;;;;;;;;10824864;27;20019;-75
2024/04/19 01:47:05;;;;;;;1.45;0.75;;;;;;;;;;10833699;27;20376;-74
2024/04/19 01:52:10;;;;;;;2.20;1.08;;;;;;;;;;10821321;27;20348;-74
2024/04/19 01:57:17;;;;;;;1.25;0.98;;;;;;;;;;10829875;27;20011;-75
2024/04/19 02:02:23;;;;;;;0.80;0.80;;;;;;;;;;10829337;27;20459;-75
2024/04/19 02:07:28;;;;;;;1.27;1.17;;;;;;;;;;10828091;27;20502;-74
2024/04/19 02:12:35;;;;;;;2.55;1.17;;;;;;;;;;10826445;27;20026;-75
2024/04/19 02:17:40;;;;;;;1.75;1.27;;;;;;;;;;10823526;27;20011;-75
2024/04/19 02:22:45;;;;;;;2.08;1.50;;;;;;;;;;10824037;27;20041;-75
2024/04/19 02:33:14;;;;;;;3.53;2.30;;;;;;;;;;10836217;27;20011;-75
2024/04/19 02:38:19;;;;;;;2.90;2.10;;;;;;;;;;10794367;27;20011;-75
2024/04/19 02:43:27;;;;;;;3.00;1.63;;;;;;;;;;10825976;27;20374;-75
2024/04/19 02:48:38;;;;;;;4.63;1.65;;;;;;;;;;10827173;27;20011;-75
2024/04/19 02:53:43;;;;;;;2.25;1.55;;;;;;;;;;10826473;27;20070;-75
2024/04/19 02:58:52;;;;;;;3.08;1.70;;;;;;;;;;10822095;27;20034;-75
2024/04/19 03:03:57;;;;;;;2.45;1.60;;;;;;;;;;10825340;27;20029;-75
2024/04/19 03:09:04;;;;;;;3.67;2.00;;;;;;;;;;10826914;27;20112;-75
2024/04/19 03:14:30;;;;;;;3.33;2.17;;;;;;;;;;10820302;27;20667;-76
2024/04/19 03:19:35;;;;;;;4.53;2.13;;;;;;;;;;10806245;27;20011;-75
2024/04/19 03:24:40;;;;;;;3.03;1.83;;;;;;;;;;10834962;27;20011;-76
2024/04/19 03:29:50;;;;;;;1.60;1.48;;;;;;;;;;10831286;27;20026;-76
2024/04/19 03:34:56;;;;;;;2.58;1.50;;;;;;;;;;10822135;27;20007;-76
2024/04/19 03:40:02;;;;;;;4.22;2.08;;;;;;;;;;10827009;27;20015;-76
2024/04/19 03:50:31;;;;;;;3.45;2.25;;;;;;;;;;10830309;27;20344;-75
2024/04/19 03:55:36;;;;;;;2.85;1.70;;;;;;;;;;10827050;27;20684;-76
2024/04/19 04:00:43;;;;;;;3.78;2.13;;;;;;;;;;10831515;27;20471;-76
2024/04/19 04:05:53;;;;;;;2.67;1.85;;;;;;;;;;10834389;27;20011;-76
2024/04/19 04:11:00;;;;;;;3.85;1.85;;;;;;;;;;10832099;27;20025;-76
2024/04/19 04:16:08;;;;;;;1.65;1.30;;;;;;;;;;10830630;27;20314;-76
2024/04/19 04:21:13;;;;;;;2.22;1.13;;;;;;;;;;10837261;27;20394;-76
2024/04/19 04:26:18;;;;;;;1.08;0.70;;;;;;;;;;10831366;27;20025;-76
2024/04/19 04:31:26;;;;;;;0.63;0.63;;;;;;;;;;10823472;27;20027;-76
2024/04/19 04:36:32;;;;;;;0.50;0.50;;;;;;;;;;10819534;27;20610;-76
2024/04/19 04:41:39;;;;;;;2.50;0.85;;;;;;;;;;10820693;27;20029;-76
2024/04/19 04:46:47;;;;;;;0.55;0.43;;;;;;;;;;10828083;27;20823;-76
2024/04/19 04:51:52;;;;;;;1.10;0.88;;;;;;;;;;10827297;27;20011;-76
2024/04/19 04:56:57;;;;;;;0.98;0.60;;;;;;;;;;10801886;27;20034;-76
2024/04/19 05:02:05;;;;;;;1.10;0.73;;;;;;;;;;10831571;27;20483;-76
2024/04/19 05:07:10;;;;;;;1.05;1.05;;;;;;;;;;10819327;27;20011;-76
2024/04/19 05:12:15;;;;;;;2.00;0.80;;;;;;;;;;10827770;27;20015;-76
2024/04/19 05:17:23;;;;;;;1.17;1.08;;;;;;;;;;10827357;27;20015;-76
2024/04/19 05:22:29;;;;;;;1.17;0.80;;;;;;;;;;10825494;27;20014;-76
2024/04/19 05:27:34;;;;;;;1.53;0.80;;;;;;;;;;10826999;27;20011;-76
2024/04/19 05:32:41;;;;;;;1.58;1.15;;;;;;;;;;10826958;27;20007;-76
2024/04/19 05:37:47;;;;;;;0.73;0.73;;;;;;;;;;10824627;27;20011;-76
2024/04/19 05:42:53;;;;;;;1.08;0.98;;;;;;;;;;10791196;27;20014;-76
2024/04/19 05:48:00;;;;;;;1.20;1.05;;;;;;;;;;10780867;27;22426;-77
2024/04/19 05:53:06;;;;;;;1.35;1.10;;;;;;;;;;10803132;27;20424;-76
2024/04/19 05:58:11;;;;;;;1.40;1.20;;;;;;;;;;10828008;27;20011;-76
2024/04/19 06:03:18;;;;;;;2.10;1.25;;;;;;;;;;10826421;27;20015;-76
2024/04/19 06:08:23;;;;;;;2.38;1.30;;;;;;;;;;10799887;27;20114;-75
2024/04/19 06:13:28;;;;;;;1.00;0.95;;;;;;;;;;10842856;27;20467;-76
2024/04/19 06:18:36;;;;;;;1.55;1.13;;;;;;;;;;10826055;27;20022;-76
2024/04/19 06:23:41;;;;;;;1.20;1.10;;;;;;;;;;10821921;27;20014;-76
2024/04/19 06:28:46;;;;;;;1.65;1.25;;;;;;;;;;10814771;27;20361;-76
2024/04/19 06:33:53;;;;;;;1.90;1.50;;;;;;;;;;10814035;27;20015;-76
2024/04/19 06:39:02;;;;;;;1.70;1.35;;;;;;;;;;10826734;27;20011;-76
2024/04/19 06:44:08;;;;;;;3.80;1.70;;;;;;;;;;10818984;27;20396;-77
2024/04/19 06:49:16;;;;;;;2.70;1.90;;;;;;;;;;10820200;27;20360;-76
2024/04/19 06:54:21;;;;;;;1.95;1.63;;;;;;;;;;10835286;27;20022;-75
2024/04/19 06:59:26;;;;;;;2.08;1.75;;;;;;;;;;10828499;27;20011;-76
2024/04/19 07:04:33;;;;;;;2.95;2.10;;;;;;;;;;10827157;27;20015;-75
2024/04/19 07:09:39;;;;;;;2.15;1.85;;;;;;;;;;10827292;27;20011;-76
2024/04/19 07:14:44;;;;;;;2.65;2.10;;;;;;;;;;10837005;21;20011;-77
2024/04/19 07:19:52;;;;;;;4.63;2.33;;;;;;;;;;10823725;27;21127;-77
2024/04/19 07:24:57;;;;;;;2.67;2.20;;;;;;;;;;10823964;27;20011;-77
2024/04/19 07:30:03;;;;;;;4.55;3.17;;;;;;;;;;10819276;27;20023;-77
2024/04/19 07:35:11;;;;;;;2.92;2.28;;;;;;;;;;10827818;27;20010;-77
2024/04/19 07:40:16;;;;;;;4.07;1.95;;;;;;;;;;10834913;27;20015;-77
2024/04/19 07:45:23;;;;;;;3.53;2.60;;;;;;;;;;10828304;27;20360;-77
2024/04/19 07:50:31;;;;;;;2.55;2.28;;;;;;;;;;10820367;27;20177;-77
2024/04/19 07:55:39;;;;;;;3.60;2.90;;;;;;;;;;10825272;27;20026;-77
2024/04/19 08:00:47;;;;;;;3.15;2.20;;;;;;;;;;10825248;27;20018;-77
2024/04/19 08:05:55;;;;;;;1.95;1.73;;;;;;;;;;10830027;27;20021;-77
2024/04/19 08:11:01;;;;;;;1.60;1.50;;;;;;;;;;10832496;27;20023;-77
2024/04/19 08:16:07;;;;;;;2.88;2.50;;;;;;;;;;10831079;27;20029;-77
2024/04/19 08:21:14;;;;;;;3.33;2.27;;;;;;;;;;10804400;27;20035;-77
2024/04/19 08:26:19;;;;;;;2.83;2.50;;;;;;;;;;10801102;27;20462;-77
2024/04/19 08:31:24;;;;;;;1.90;1.80;;;;;;;;;;10830369;27;20066;-77
2024/04/19 08:36:32;;;;;;;1.90;1.80;;;;;;;;;;10830487;27;20030;-77
2024/04/19 08:41:37;;;;;;;2.25;2.05;;;;;;;;;;10817149;27;20011;-77
2024/04/19 08:46:43;;;;;;;1.63;1.52;;;;;;;;;;10813725;27;20029;-77
2024/04/19 08:51:51;;;;;;;1.40;1.30;;;;;;;;;;10810785;27;20017;-77
2024/04/19 08:56:59;;;;;;;1.90;1.40;;;;;;;;;;10832072;27;20011;-76
2024/04/19 09:02:04;;;;;;;1.35;1.25;;;;;;;;;;10832223;27;20022;-77
2024/04/19 09:07:12;;;;;;;1.25;1.10;;;;;;;;;;10830920;27;20007;-77
2024/04/19 09:12:17;;;;;;;1.73;1.23;;;;;;;;;;10827251;27;20015;-77
2024/04/19 09:17:22;;;;;;;1.38;0.95;;;;;;;;;;10818236;27;20010;-77
2024/04/19 09:22:30;;;;;;;1.48;1.10;;;;;;;;;;10780082;27;20090;-77
2024/04/19 09:27:36;;;;;;;1.00;1.00;;;;;;;;;;10828558;27;20023;-77
2024/04/19 09:32:41;;;;;;;1.88;1.10;;;;;;;;;;10823018;27;20015;-77
2024/04/19 09:37:49;;;;;;;1.10;1.00;;;;;;;;;;10791753;27;20015;-77
2024/04/19 09:43:05;;;;;;;1.23;1.10;;;;;;;;;;10792680;27;20003;-77
2024/04/19 09:48:13;;;;;;;1.23;1.13;;;;;;;;;;10829817;27;20025;-76
2024/04/19 09:53:33;;;;;;;1.00;1.00;;;;;;;;;;10813625;27;20015;-77
2024/04/19 09:58:39;;;;;;;0.82;0.82;;;;;;;;;;10806359;27;20007;-76
2024/04/19 10:03:45;;;;;;;;;;;;;;;;;;10807129;27;20010;-77
2024/04/19 10:08:54;;;;;;;1.15;0.80;;;;;;;;;;10819739;27;20484;-77
2024/04/19 10:13:59;;;;;;;1.00;0.90;;;;;;;;;;10829683;27;20022;-77
2024/04/19 10:19:04;;;;;;;1.10;0.98;;;;;;;;;;10824887;27;20011;-77
2024/04/19 10:24:17;;;;;;;1.85;0.90;;;;;;;;;;10821381;27;20461;-77
2024/04/19 10:29:25;;;;;;;0.85;0.80;;;;;;;;;;10826904;27;20021;-76
2024/04/19 10:34:30;;;;;;;1.33;0.73;;;;;;;;;;10822057;27;20023;-77
2024/04/19 10:39:38;;;;;;;0.95;0.60;;;;;;;;;;10799646;27;20445;-77
2024/04/19 10:44:46;;;;;;;0.50;0.50;;;;;;;;;;10823621;27;20011;-77
2024/04/19 10:49:52;;;;;;;0.60;0.60;;;;;;;;;;10828999;27;20015;-77
2024/04/19 10:55:00;;;;;;;0.60;0.60;;;;;;;;;;10827470;27;20014;-77
2024/04/19 11:00:06;;;;;;;0.98;0.60;;;;;;;;;;10827825;27;20023;-77
2024/04/19 11:05:11;;;;;;;1.05;0.60;;;;;;;;;;10825944;27;20015;-76
2024/04/19 11:10:19;;;;;;;1.30;0.70;;;;;;;;;;10816612;27;20015;-76
2024/04/19 11:15:24;;;;;;;0.70;0.70;;;;;;;;;;10819409;27;20011;-76
2024/04/19 11:20:29;;;;;;;1.17;0.90;;;;;;;;;;10819852;27;20011;-77
2024/04/19 11:25:38;;;;;;;0.93;0.60;;;;;;;;;;10815941;27;20019;-76
2024/04/19 11:30:43;;;;;;;0.50;0.50;;;;;;;;;;10821374;27;20727;-76
2024/04/19 11:35:48;;;;;;;0.75;0.75;;;;;;;;;;10826457;27;20011;-76
2024/04/19 11:40:56;;;;;;;0.53;0.53;;;;;;;;;;10823288;27;20025;-77
2024/04/19 11:46:01;;;;;;;0.60;0.60;;;;;;;;;;10824351;27;20014;-76
2024/04/19 11:51:06;;;;;;;0.98;0.90;;;;;;;;;;10833049;27;20058;-77
2024/04/19 11:56:14;;;;;;;1.47;0.80;;;;;;;;;;10793062;27;20016;-76
2024/04/19 12:01:19;;;;;;;1.02;0.93;;;;;;;;;;10832505;27;20458;-76
2024/04/19 12:06:25;;;;;;;2.05;1.10;;;;;;;;;;10833978;27;20617;-76
2024/04/19 12:11:32;;;;;;;2.77;1.47;;;;;;;;;;10831229;27;20007;-77
2024/04/19 12:16:37;;;;;;;1.08;0.90;;;;;;;;;;10828891;27;20021;-77
2024/04/19 12:21:43;;;;;;;2.33;0.93;;;;;;;;;;10823902;27;20862;-78
2024/04/19 12:26:50;;;;;;;1.88;1.00;;;;;;;;;;10828936;27;20011;-77
2024/04/19 12:31:56;;;;;;;0.70;0.60;;;;;;;;;;10832612;27;20010;-77
2024/04/19 12:37:01;;;;;;;1.80;1.10;;;;;;;;;;10832681;27;20479;-77
2024/04/19 12:42:10;;;;;;;0.55;0.50;;;;;;;;;;10833652;27;20011;-77
2024/04/19 12:47:15;;;;;;;0.77;0.77;;;;;;;;;;10830234;27;20021;-78
2024/04/19 12:52:20;;;;;;;1.20;0.70;;;;;;;;;;10830598;27;20011;-77
2024/04/19 12:57:28;;;;;;;0.82;0.73;;;;;;;;;;10830934;27;20033;-77
2024/04/19 13:02:33;;;;;;;0.52;0.52;;;;;;;;;;10830582;27;20011;-77
2024/04/19 13:07:38;;;;;;;1.60;0.50;;;;;;;;;;10829932;27;20007;-77
2024/04/19 13:12:46;;;;;;;1.67;0.90;;;;;;;;;;10830158;27;20014;-77
2024/04/19 13:17:51;;;;;;;0.70;0.70;;;;;;;;;;10839420;21;20119;-77
2024/04/19 13:22:56;;;;;;;1.23;0.60;;;;;;;;;;10768316;27;20019;-77
2024/04/19 13:28:03;;;;;;;0.60;0.60;;;;;;;;;;10764270;27;20015;-77
2024/04/19 13:33:08;;;;;;;0.50;0.40;;;;;;;;;;10763075;27;20012;-76
2024/04/19 13:38:13;;;;;;;0.40;0.40;;;;;;;;;;10758134;27;20012;-76
2024/04/19 13:43:21;;;;;;;0.68;0.40;;;;;;;;;;10763930;27;20023;-76
2024/04/19 13:48:36;;;;;;;0.30;0.30;;;;;;;;;;10762529;27;20358;-76
2024/04/19 13:53:41;;;;;;;0.43;0.40;;;;;;;;;;10758963;27;20022;-76
2024/04/19 13:58:49;;;;;;;0.68;0.45;;;;;;;;;;10756331;27;20022;-76
2024/04/19 14:03:55;;;;;;;0.30;0.30;;;;;;;;;;10749043;27;20031;-76
2024/04/19 14:09:01;;;;;;;0.57;0.57;;;;;;;;;;10761143;27;20011;-76
2024/04/19 14:14:08;;;;;;;1.10;0.70;;;;;;;;;;10766730;27;20016;-77
2024/04/19 14:19:13;;;;;;;1.15;0.98;;;;;;;;;;10755310;27;20026;-77
2024/04/19 14:24:18;;;;;;;0.75;0.52;;;;;;;;;;10759714;27;20689;-77
2024/04/19 14:29:26;;;;;;;0.70;0.30;;;;;;;;;;10758402;27;20027;-77
2024/04/19 14:34:31;;;;;;;1.05;0.40;;;;;;;;;;10760176;27;20087;-76
2024/04/19 14:39:36;;;;;;;0.85;0.60;;;;;;;;;;10757561;27;20011;-76
2024/04/19 14:44:44;;;;;;;0.60;0.60;;;;;;;;;;10757122;27;20011;-77
2024/04/19 14:49:49;;;;;;;0.60;0.60;;;;;;;;;;10758027;27;20025;-77
2024/04/19 14:54:54;;;;;;;0.90;0.50;;;;;;;;;;10767986;27;20030;-76
2024/04/19 15:00:02;;;;;;;1.10;0.68;;;;;;;;;;10756877;27;20369;-76
2024/04/19 15:05:07;;;;;;;1.15;0.57;;;;;;;;;;10766968;27;20016;-77
2024/04/19 15:10:13;;;;;;;2.72;0.68;;;;;;;;;;10766905;27;20022;-76
2024/04/19 15:15:20;;;;;;;0.55;0.50;;;;;;;;;;10763994;27;20016;-77
2024/04/19 15:20:25;;;;;;;2.88;1.10;;;;;;;;;;10763989;27;21115;-77
2024/04/19 15:25:31;;;;;;;1.20;0.75;;;;;;;;;;10766140;27;20019;-76
2024/04/19 15:30:41;;;;;;;2.20;0.73;;;;;;;;;;10766629;27;20474;-77
2024/04/19 15:35:46;;;;;;;1.15;0.60;;;;;;;;;;10772831;27;20012;-77
2024/04/19 15:40:51;;;;;;;2.17;1.00;;;;;;;;;;10767018;27;20074;-77
2024/04/19 15:45:58;;;;;;;1.75;0.80;;;;;;;;;;10762887;27;20457;-76
2024/04/19 15:51:05;;;;;;;1.33;0.63;;;;;;;;;;10752033;27;20024;-77
2024/04/19 15:56:10;;;;;;;1.02;0.77;;;;;;;;;;10754933;27;20012;-76
2024/04/19 16:01:18;;;;;;;2.72;1.00;;;;;;;;;;10764296;27;20015;-77
2024/04/19 16:06:23;;;;;;;1.75;0.88;;;;;;;;;;10772069;27;20030;-77
2024/04/19 16:11:29;;;;;;;2.75;0.90;;;;;;;;;;10763460;27;20341;-76
2024/04/19 16:16:39;;;;;;;1.02;0.70;;;;;;;;;;10756450;27;20018;-77
2024/04/19 16:21:44;;;;;;;17.35;8.43;;;;;;;;;;10749376;27;20010;-77
2024/04/19 16:26:49;;;;;;;14.45;7.80;;;;;;;;;;10782004;27;20613;-77
2024/04/19 16:31:57;;;;;;;18.40;10.50;;;;;;;;;;10783070;27;20371;-77
2024/04/19 16:37:02;;;;;;;17.77;8.52;;;;;;;;;;10777626;27;20793;-76
2024/04/19 16:42:08;;;;;;;24.60;12.67;;;;;;;;;;10768200;27;20012;-77
2024/04/19 16:47:15;;;;;;;19.13;10.63;;;;;;;;;;10728829;27;20015;-76
2024/04/19 16:52:20;;;;;;;6.40;4.55;;;;;;;;;;10761470;27;20078;-76
2024/04/19 16:57:25;;;;;;;9.02;6.28;;;;;;;;;;10763922;27;20016;-75
2024/04/19 17:02:33;;;;;;;2.45;1.80;;;;;;;;;;10778758;27;20769;-76
2024/04/19 17:07:38;;;;;;;2.92;1.50;;;;;;;;;;10773918;27;20028;-77
2024/04/19 17:12:43;;;;;;;1.65;1.20;;;;;;;;;;10768243;27;20053;-77
2024/04/19 17:17:53;;;;;;;4.07;1.42;;;;;;;;;;10765416;27;20007;-77
2024/04/19 17:22:59;;;;;;;5.93;1.70;;;;;;;;;;10771600;27;20016;-76
2024/04/19 17:28:06;;;;;;;2.73;1.40;;;;;;;;;;10772282;27;20103;-76
2024/04/19 17:33:14;;;;;;;3.28;1.13;;;;;;;;;;10771618;27;20087;-76
2024/04/19 17:38:19;;;;;;;3.88;1.23;;;;;;;;;;10781261;27;20016;-76
2024/04/19 17:43:24;;;;;;;2.42;1.45;;;;;;;;;;10777739;27;20043;-76
2024/04/19 17:48:31;;;;;;;5.97;2.03;;;;;;;;;;10779669;27;20090;-77
2024/04/19 17:53:36;;;;;;;3.80;1.50;;;;;;;;;;10783951;27;20026;-76
2024/04/19 17:58:43;;;;;;;2.58;1.30;;;;;;;;;;10784514;27;20051;-77
2024/04/19 18:03:51;;;;;;;3.08;1.40;;;;;;;;;;10775198;27;20011;-77
2024/04/19 18:08:56;;;;;;;4.43;1.40;;;;;;;;;;10776547;27;20856;-77
2024/04/19 18:14:01;;;;;;;2.50;0.80;;;;;;;;;;10770791;27;20040;-77
2024/04/19 18:19:12;;;;;;;2.35;1.15;;;;;;;;;;10769686;27;20028;-76
2024/04/19 18:24:20;;;;;;;5.55;1.70;;;;;;;;;;10766680;27;20009;-76
2024/04/19 18:29:26;;;;;;;8.65;3.33;;;;;;;;;;10768765;27;20034;-77
2024/04/19 18:34:34;;;;;;;;;;;;;;;;;;10775356;27;20019;-76
2024/04/19 18:39:39;;;;;;;3.78;1.60;;;;;;;;;;10780099;27;19939;-76
2024/04/19 18:44:44;;;;;;;3.58;1.60;;;;;;;;;;10783498;27;20021;-77
2024/04/19 18:49:51;;;;;;;2.38;1.33;;;;;;;;;;10772631;27;20007;-76
2024/04/19 18:54:56;;;;;;;0.93;0.80;;;;;;;;;;10755937;27;20016;-76
2024/04/19 19:00:04;;;;;;;6.30;1.77;;;;;;;;;;10754659;27;20008;-77
2024/04/19 19:05:13;;;;;;;8.70;1.90;;;;;;;;;;10770098;27;20023;-77
2024/04/19 19:10:18;;;;;;;6.38;2.33;;;;;;;;;;10768790;27;20296;-76
2024/04/19 19:15:23;;;;;;;8.48;1.98;;;;;;;;;;10800139;21;21058;-77
2024/04/19 19:20:31;;;;;;;8.20;2.20;;;;;;;;;;10809716;27;20030;-77
2024/04/19 19:25:40;;;;;;;5.65;1.92;;;;;;;;;;10760329;27;20008;-77
2024/04/19 19:30:45;;;;;;;7.40;2.33;;;;;;;;;;10764334;27;20024;-77
2024/04/19 19:36:00;;;;;;;6.68;1.83;;;;;;;;;;10754763;27;20020;-77
2024/04/19 19:41:05;;;;;;;5.18;1.65;;;;;;;;;;10760486;27;20026;-77
2024/04/19 19:46:12;;;;;;;6.18;1.95;;;;;;;;;;10760513;27;20714;-77
2024/04/19 19:51:19;;;;;;;8.75;1.83;;;;;;;;;;10757656;27;20041;-77
2024/04/19 19:56:24;;;;;;;6.63;2.22;;;;;;;;;;10765504;27;20008;-78
2024/04/19 20:06:53;;;;;;;6.35;1.88;;;;;;;;;;10766114;27;20449;-76
2024/04/19 20:11:58;;;;;;;6.15;1.85;;;;;;;;;;10765103;27;20008;-76
2024/04/19 20:17:03;;;;;;;5.88;2.03;;;;;;;;;;10765418;27;20015;-77
2024/04/19 20:22:11;;;;;;;4.03;1.75;;;;;;;;;;10763675;27;20016;-76
2024/04/19 20:27:16;;;;;;;5.70;1.92;;;;;;;;;;10763165;27;20012;-75
2024/04/19 20:32:21;;;;;;;3.35;1.35;;;;;;;;;;10764229;27;20034;-76
2024/04/19 20:37:29;;;;;;;3.20;1.55;;;;;;;;;;10762113;27;20458;-76
2024/04/19 20:42:34;;;;;;;3.63;1.38;;;;;;;;;;10764428;27;20477;-76
2024/04/19 20:47:41;;;;;;;3.55;1.13;;;;;;;;;;10776178;27;20012;-76
2024/04/19 20:52:50;;;;;;;4.55;1.33;;;;;;;;;;10766164;27;20048;-75
2024/04/19 20:57:55;;;;;;;9.40;1.60;;;;;;;;;;10765367;27;20012;-76
2024/04/19 21:03:00;;;;;;;4.20;1.30;;;;;;;;;;10764691;27;20019;-76
2024/04/19 21:08:08;;;;;;;5.05;2.00;;;;;;;;;;10765500;27;20841;-76
2024/04/19 21:13:13;;;;;;;7.68;3.50;;;;;;;;;;10766653;27;20361;-75
2024/04/19 21:18:19;;;;;;;9.43;3.58;;;;;;;;;;10763949;27;20087;-75
2024/04/19 21:23:27;;;;;;;8.63;3.10;;;;;;;;;;10754979;27;20016;-76
2024/04/19 21:28:32;;;;;;;8.65;3.20;;;;;;;;;;10750241;27;20023;-76
2024/04/19 21:33:38;;;;;;;5.33;3.33;;;;;;;;;;10750887;27;20480;-76
2024/04/19 21:38:46;;;;;;;9.70;5.60;;;;;;;;;;10756354;27;20044;-76
2024/04/19 21:43:51;;;;;;;4.22;3.50;;;;;;;;;;10757812;27;20365;-76
2024/04/19 21:48:56;;;;;;;7.60;5.90;;;;;;;;;;10762355;27;20015;-76
2024/04/19 21:54:04;;;;;;;4.50;2.00;;;;;;;;;;10763296;27;20477;-76
2024/04/19 21:59:09;;;;;;;5.22;1.90;;;;;;;;;;10756821;27;20027;-76
2024/04/19 22:04:14;;;;;;;4.55;1.67;;;;;;;;;;10764876;27;20179;-76
2024/04/19 22:09:22;;;;;;;3.75;1.40;;;;;;;;;;10732223;27;20016;-76
2024/04/19 22:14:27;;;;;;;8.55;2.50;;;;;;;;;;10758788;27;20011;-76
2024/04/19 22:19:32;;;;;;;7.63;2.03;;;;;;;;;;10756833;27;20051;-76
2024/04/19 22:24:39;;;;;;;5.78;1.70;;;;;;;;;;10766235;27;20016;-76
2024/04/19 22:29:44;;;;;;;7.15;1.90;;;;;;;;;;10757856;27;20597;-75
2024/04/19 22:34:50;;;;;;;5.10;1.98;;;;;;;;;;10766351;27;20011;-75
2024/04/19 22:39:58;;;;;;;4.93;1.67;;;;;;;;;;10758238;27;20011;-76
2024/04/19 22:45:03;;;;;;;6.35;1.83;;;;;;;;;;10755347;27;20036;-76
2024/04/19 22:50:09;;;;;;;4.55;1.83;;;;;;;;;;10759746;27;20034;-76
2024/04/19 22:55:16;;;;;;;5.50;1.80;;;;;;;;;;10760143;27;20390;-75
2024/04/19 23:00:22;;;;;;;6.10;1.70;;;;;;;;;;10754820;27;20015;-75
2024/04/19 23:05:27;;;;;;;6.35;2.50;;;;;;;;;;10741039;27;20016;-75
2024/04/19 23:10:34;;;;;;;9.75;2.42;;;;;;;;;;10754211;27;20019;-76
2024/04/19 23:15:39;;;;;;;8.02;2.92;;;;;;;;;;10750640;27;20086;-75
2024/04/19 23:20:44;;;;;;;9.40;2.83;;;;;;;;;;10746273;27;20480;-75
2024/04/19 23:26:01;;;;;;;5.15;2.28;;;;;;;;;;10760222;27;20015;-75
2024/04/19 23:31:06;;;;;;;5.72;2.47;;;;;;;;;;10750694;27;20016;-76
2024/04/19 23:36:12;;;;;;;3.73;2.00;;;;;;;;;;10769116;27;20012;-76
2024/04/19 23:41:22;;;;;;;6.30;2.13;;;;;;;;;;10766791;27;20008;-76
2024/04/19 23:46:27;;;;;;;7.72;2.45;;;;;;;;;;10755543;27;20804;-75
2024/04/19 23:51:34;;;;;;;5.38;2.22;;;;;;;;;;10760206;27;20034;-75
2024/04/19 23:56:42;;;;;;;6.22;2.30;;;;;;;;;;10763756;27;20015;-76
